createdAt,value
2019-01-26T00:01:05.037Z,2.80
2019-01-26T00:02:13.547Z,2.90
2019-01-26T00:03:20.213Z,2.90
2019-01-26T00:04:26.857Z,2.90
2019-01-26T00:05:33.521Z,2.90
2019-01-26T00:06:40.293Z,2.90
2019-01-26T00:07:47.277Z,2.90
2019-01-26T00:08:53.993Z,2.90
2019-01-26T00:10:01.033Z,2.90
2019-01-26T00:11:08.232Z,3.00
2019-01-26T00:12:14.897Z,3.00
2019-01-26T00:13:21.640Z,3.00
2019-01-26T00:14:28.286Z,3.00
2019-01-26T00:15:35.130Z,3.00
2019-01-26T00:16:42.016Z,3.00
2019-01-26T00:17:48.693Z,3.10
2019-01-26T00:18:55.744Z,3.10
2019-01-26T00:20:02.449Z,3.10
2019-01-26T00:21:09.113Z,3.10
2019-01-26T00:22:16.020Z,3.10
2019-01-26T00:23:22.993Z,3.10
2019-01-26T00:24:29.727Z,3.10
2019-01-26T00:25:36.418Z,3.10
2019-01-26T00:26:43.117Z,3.10
2019-01-26T00:27:49.971Z,3.20
2019-01-26T00:28:56.666Z,3.20
2019-01-26T00:30:03.386Z,3.20
2019-01-26T00:31:10.098Z,3.20
2019-01-26T00:32:17.159Z,3.20
2019-01-26T00:33:24.522Z,3.20
2019-01-26T00:34:31.172Z,3.20
2019-01-26T00:35:38.299Z,3.20
2019-01-26T00:36:45.272Z,3.20
2019-01-26T00:37:51.949Z,3.30
2019-01-26T00:38:58.685Z,3.20
2019-01-26T00:40:06.848Z,3.20
2019-01-26T00:41:13.826Z,3.20
2019-01-26T00:42:20.952Z,3.20
2019-01-26T00:43:27.669Z,3.30
2019-01-26T00:44:34.402Z,3.20
2019-01-26T00:45:41.454Z,3.20
2019-01-26T00:46:48.202Z,3.20
2019-01-26T00:47:55.197Z,3.20
2019-01-26T00:49:02.170Z,3.30
2019-01-26T00:50:09.682Z,3.30
2019-01-26T00:51:17.333Z,3.30
2019-01-26T00:52:24.399Z,3.40
2019-01-26T00:53:31.445Z,3.30
2019-01-26T00:54:38.149Z,3.40
2019-01-26T00:55:45.082Z,3.40
2019-01-26T00:56:52.135Z,3.40
2019-01-26T00:57:58.862Z,3.40
2019-01-26T00:59:05.669Z,3.40
2019-01-26T01:00:15.651Z,3.40
2019-01-26T01:01:22.331Z,3.40
2019-01-26T01:02:29.596Z,3.40
2019-01-26T01:03:36.422Z,3.50
2019-01-26T01:04:43.104Z,3.50
2019-01-26T01:05:49.822Z,3.40
2019-01-26T01:06:56.577Z,3.50
2019-01-26T01:08:03.235Z,3.50
2019-01-26T01:09:11.197Z,3.50
2019-01-26T01:10:19.145Z,3.50
2019-01-26T01:11:25.851Z,3.50
2019-01-26T01:12:32.681Z,3.50
2019-01-26T01:13:39.893Z,3.50
2019-01-26T01:14:46.571Z,3.50
2019-01-26T01:15:53.638Z,3.50
2019-01-26T01:17:00.899Z,3.50
2019-01-26T01:18:07.989Z,3.50
2019-01-26T01:19:14.650Z,3.50
2019-01-26T01:20:22.125Z,3.50
2019-01-26T01:21:29.358Z,3.50
2019-01-26T01:22:36.109Z,3.50
2019-01-26T01:23:43.330Z,3.50
2019-01-26T01:24:50.480Z,3.60
2019-01-26T01:25:57.184Z,3.50
2019-01-26T01:27:03.902Z,3.50
2019-01-26T01:28:10.599Z,3.50
2019-01-26T01:29:17.320Z,3.50
2019-01-26T01:30:24.261Z,3.60
2019-01-26T01:31:31.273Z,3.60
2019-01-26T01:32:37.957Z,3.50
2019-01-26T01:33:44.671Z,3.50
2019-01-26T01:34:51.331Z,3.60
2019-01-26T01:35:58.101Z,3.60
2019-01-26T01:37:05.108Z,3.60
2019-01-26T01:38:11.834Z,3.60
2019-01-26T01:39:18.897Z,3.60
2019-01-26T01:40:25.664Z,3.60
2019-01-26T01:41:32.354Z,3.70
2019-01-26T01:42:39.043Z,3.70
2019-01-26T01:43:46.064Z,3.70
2019-01-26T01:44:52.833Z,3.70
2019-01-26T01:45:59.527Z,3.70
2019-01-26T01:47:06.174Z,3.70
2019-01-26T01:48:12.839Z,3.70
2019-01-26T01:49:19.591Z,3.70
2019-01-26T01:50:26.589Z,3.70
2019-01-26T01:51:33.289Z,3.70
2019-01-26T01:52:39.983Z,3.80
2019-01-26T01:53:46.721Z,3.80
2019-01-26T01:54:53.393Z,3.80
2019-01-26T01:56:00.489Z,3.80
2019-01-26T01:57:07.258Z,3.80
2019-01-26T01:58:13.925Z,3.80
2019-01-26T01:59:20.624Z,3.80
2019-01-26T02:00:27.777Z,3.80
2019-01-26T02:01:34.480Z,3.80
2019-01-26T02:02:41.245Z,3.80
2019-01-26T02:03:47.917Z,3.80
2019-01-26T02:04:54.664Z,3.80
2019-01-26T02:06:01.402Z,3.90
2019-01-26T02:07:08.760Z,3.90
2019-01-26T02:08:15.487Z,3.90
2019-01-26T02:09:22.141Z,3.90
2019-01-26T02:10:29.156Z,3.90
2019-01-26T02:11:35.854Z,4.00
2019-01-26T02:12:42.629Z,4.00
2019-01-26T02:13:49.392Z,4.00
2019-01-26T02:14:56.774Z,4.00
2019-01-26T02:16:03.505Z,4.00
2019-01-26T02:17:10.321Z,4.10
2019-01-26T02:18:17.115Z,4.10
2019-01-26T02:19:24.096Z,4.10
2019-01-26T02:20:30.803Z,4.10
2019-01-26T02:21:38.114Z,4.10
2019-01-26T02:22:45.497Z,4.10
2019-01-26T02:23:52.576Z,4.10
2019-01-26T02:24:59.758Z,4.10
2019-01-26T02:26:06.430Z,4.20
2019-01-26T02:27:13.138Z,4.10
2019-01-26T02:28:19.822Z,4.20
2019-01-26T02:29:26.545Z,4.20
2019-01-26T02:30:33.344Z,4.30
2019-01-26T02:31:40.010Z,4.30
2019-01-26T02:32:46.674Z,4.20
2019-01-26T02:33:53.921Z,4.30
2019-01-26T02:35:00.595Z,4.30
2019-01-26T02:36:07.540Z,4.30
2019-01-26T02:37:14.228Z,4.30
2019-01-26T02:38:20.890Z,4.30
2019-01-26T02:39:28.310Z,4.30
2019-01-26T02:40:35.841Z,4.30
2019-01-26T02:41:42.714Z,4.30
2019-01-26T02:42:49.751Z,4.40
2019-01-26T02:43:56.402Z,4.30
2019-01-26T02:45:03.113Z,4.40
2019-01-26T02:46:09.806Z,4.50
2019-01-26T02:47:16.529Z,4.50
2019-01-26T02:48:23.579Z,4.50
2019-01-26T02:49:30.625Z,4.50
2019-01-26T02:50:37.304Z,4.60
2019-01-26T02:51:44.309Z,4.60
2019-01-26T02:52:51.170Z,4.60
2019-01-26T02:53:57.915Z,4.60
2019-01-26T02:55:05.575Z,4.60
2019-01-26T02:56:12.586Z,4.60
2019-01-26T02:57:19.233Z,4.60
2019-01-26T02:58:26.306Z,4.70
2019-01-26T02:59:32.966Z,4.70
2019-01-26T03:00:39.679Z,4.80
2019-01-26T03:01:46.548Z,4.80
2019-01-26T03:02:53.585Z,4.80
2019-01-26T03:04:00.343Z,4.80
2019-01-26T03:05:08.744Z,4.80
2019-01-26T03:06:15.764Z,4.80
2019-01-26T03:07:22.986Z,4.90
2019-01-26T03:08:29.689Z,4.90
2019-01-26T03:09:36.536Z,4.90
2019-01-26T03:10:43.509Z,4.90
2019-01-26T03:11:50.486Z,4.90
2019-01-26T03:12:57.203Z,4.90
2019-01-26T03:14:03.844Z,5.00
2019-01-26T03:15:13.405Z,4.90
2019-01-26T03:16:20.123Z,4.90
2019-01-26T03:17:27.089Z,5.00
2019-01-26T03:18:34.106Z,5.00
2019-01-26T03:19:40.748Z,5.00
2019-01-26T03:20:47.983Z,5.00
2019-01-26T03:21:54.984Z,5.00
2019-01-26T03:23:02.079Z,5.10
2019-01-26T03:24:09.189Z,5.10
2019-01-26T03:25:16.788Z,5.10
2019-01-26T03:26:23.464Z,5.10
2019-01-26T03:27:30.453Z,5.10
2019-01-26T03:28:37.108Z,5.10
2019-01-26T03:29:43.829Z,5.20
2019-01-26T03:30:50.810Z,5.20
2019-01-26T03:31:57.496Z,5.20
2019-01-26T03:33:04.168Z,5.20
2019-01-26T03:34:10.869Z,5.10
2019-01-26T03:35:18.093Z,5.10
2019-01-26T03:36:24.829Z,5.10
2019-01-26T03:37:31.483Z,5.10
2019-01-26T03:38:38.549Z,5.10
2019-01-26T03:39:45.545Z,5.10
2019-01-26T03:40:53.215Z,5.10
2019-01-26T03:41:59.923Z,5.10
2019-01-26T03:43:06.992Z,5.10
2019-01-26T03:44:13.983Z,5.10
2019-01-26T03:45:21.009Z,5.20
2019-01-26T03:46:27.756Z,5.10
2019-01-26T03:47:35.074Z,5.10
2019-01-26T03:48:41.792Z,5.20
2019-01-26T03:49:48.464Z,5.20
2019-01-26T03:50:55.171Z,5.10
2019-01-26T03:52:01.823Z,5.10
2019-01-26T03:53:08.529Z,5.10
2019-01-26T03:54:15.185Z,5.20
2019-01-26T03:55:23.100Z,5.20
2019-01-26T03:56:29.954Z,5.20
2019-01-26T03:57:37.230Z,5.20
2019-01-26T03:58:44.206Z,5.20
2019-01-26T03:59:51.216Z,5.20
2019-01-26T04:00:58.410Z,5.20
2019-01-26T04:02:11.278Z,5.20
2019-01-26T04:03:17.975Z,5.20
2019-01-26T04:04:25.201Z,5.20
2019-01-26T04:05:31.936Z,5.20
2019-01-26T04:06:38.592Z,5.20
2019-01-26T04:07:45.328Z,5.20
2019-01-26T04:08:52.090Z,5.20
2019-01-26T04:09:58.823Z,5.20
2019-01-26T04:11:05.539Z,5.20
2019-01-26T04:12:12.287Z,5.20
2019-01-26T04:13:18.952Z,5.30
2019-01-26T04:14:26.192Z,5.30
2019-01-26T04:15:33.074Z,5.20
2019-01-26T04:16:39.792Z,5.30
2019-01-26T04:17:46.755Z,5.30
2019-01-26T04:18:53.941Z,5.30
2019-01-26T04:20:00.669Z,5.30
2019-01-26T04:21:07.381Z,5.30
2019-01-26T04:22:14.122Z,5.30
2019-01-26T04:23:21.425Z,5.40
2019-01-26T04:24:28.841Z,5.40
2019-01-26T04:25:36.078Z,5.40
2019-01-26T04:26:42.984Z,5.40
2019-01-26T04:27:49.635Z,5.40
2019-01-26T04:28:56.315Z,5.40
2019-01-26T04:30:03.041Z,5.40
2019-01-26T04:31:09.732Z,5.50
2019-01-26T04:32:16.457Z,5.50
2019-01-26T04:33:23.393Z,5.50
2019-01-26T04:34:30.136Z,5.50
2019-01-26T04:35:36.838Z,5.50
2019-01-26T04:36:43.918Z,5.50
2019-01-26T04:37:50.596Z,5.50
2019-01-26T04:38:57.287Z,5.50
2019-01-26T04:40:04.034Z,5.60
2019-01-26T04:41:10.683Z,5.60
2019-01-26T04:42:17.358Z,5.60
2019-01-26T04:43:24.464Z,5.60
2019-01-26T04:44:31.146Z,5.60
2019-01-26T04:45:38.213Z,5.70
2019-01-26T04:46:45.035Z,5.60
2019-01-26T04:47:51.708Z,5.60
2019-01-26T04:48:58.393Z,5.70
2019-01-26T04:50:07.001Z,5.70
2019-01-26T04:51:13.782Z,5.70
2019-01-26T04:52:20.508Z,5.70
2019-01-26T04:53:27.589Z,5.80
2019-01-26T04:54:34.603Z,5.80
2019-01-26T04:55:41.576Z,5.80
2019-01-26T04:56:48.228Z,5.80
2019-01-26T04:57:55.233Z,5.80
2019-01-26T04:59:01.950Z,5.80
2019-01-26T05:00:14.934Z,5.80
2019-01-26T05:01:21.941Z,5.80
2019-01-26T05:02:29.293Z,5.90
2019-01-26T05:03:36.007Z,5.90
2019-01-26T05:04:43.316Z,5.90
2019-01-26T05:05:50.342Z,5.90
2019-01-26T05:06:57.256Z,5.90
2019-01-26T05:08:03.925Z,5.90
2019-01-26T05:09:11.199Z,6.00
2019-01-26T05:10:19.103Z,6.00
2019-01-26T05:11:25.762Z,6.00
2019-01-26T05:12:32.760Z,6.00
2019-01-26T05:13:39.752Z,6.00
2019-01-26T05:14:47.501Z,6.10
2019-01-26T05:15:54.175Z,6.10
2019-01-26T05:17:01.214Z,6.00
2019-01-26T05:18:08.609Z,6.10
2019-01-26T05:19:15.541Z,6.10
2019-01-26T05:20:25.291Z,6.00
2019-01-26T05:21:31.972Z,6.00
2019-01-26T05:22:38.630Z,6.10
2019-01-26T05:23:45.899Z,6.10
2019-01-26T05:24:52.598Z,6.10
2019-01-26T05:25:59.280Z,6.10
2019-01-26T05:27:06.068Z,6.10
2019-01-26T05:28:12.904Z,6.10
2019-01-26T05:29:19.589Z,6.10
2019-01-26T05:30:29.794Z,6.10
2019-01-26T05:31:36.573Z,6.20
2019-01-26T05:32:43.319Z,6.20
2019-01-26T05:33:50.190Z,6.20
2019-01-26T05:34:57.190Z,6.20
2019-01-26T05:36:03.853Z,6.20
2019-01-26T05:37:11.031Z,6.20
2019-01-26T05:38:17.681Z,6.20
2019-01-26T05:39:24.408Z,6.20
2019-01-26T05:40:31.078Z,6.20
2019-01-26T05:41:37.819Z,6.30
2019-01-26T05:42:44.465Z,6.30
2019-01-26T05:43:51.482Z,6.30
2019-01-26T05:44:58.514Z,6.20
2019-01-26T05:46:05.407Z,6.30
2019-01-26T05:47:12.498Z,6.30
2019-01-26T05:48:19.299Z,6.20
2019-01-26T05:49:26.028Z,6.30
2019-01-26T05:50:32.677Z,6.30
2019-01-26T05:51:39.339Z,6.30
2019-01-26T05:52:46.319Z,6.30
2019-01-26T05:53:53.060Z,6.30
2019-01-26T05:54:59.783Z,6.30
2019-01-26T05:56:07.394Z,6.30
2019-01-26T05:57:14.381Z,6.30
2019-01-26T05:58:21.012Z,6.30
2019-01-26T05:59:28.301Z,6.30
2019-01-26T06:00:36.327Z,6.30
2019-01-26T06:01:43.707Z,6.30
2019-01-26T06:02:50.454Z,6.30
2019-01-26T06:03:57.285Z,6.30
2019-01-26T06:05:04.313Z,6.40
2019-01-26T06:06:11.388Z,6.40
2019-01-26T06:07:18.359Z,6.30
2019-01-26T06:08:25.039Z,6.30
2019-01-26T06:09:32.105Z,6.30
2019-01-26T06:10:38.793Z,6.30
2019-01-26T06:11:45.499Z,6.30
2019-01-26T06:12:52.315Z,6.30
2019-01-26T06:13:59.000Z,6.40
2019-01-26T06:15:06.989Z,6.30
2019-01-26T06:16:13.651Z,6.40
2019-01-26T06:17:20.777Z,6.40
2019-01-26T06:18:27.912Z,6.30
2019-01-26T06:19:34.884Z,6.40
2019-01-26T06:20:41.844Z,6.40
2019-01-26T06:21:48.831Z,6.40
2019-01-26T06:22:55.765Z,6.40
2019-01-26T06:24:02.497Z,6.40
2019-01-26T06:25:11.213Z,6.40
2019-01-26T06:26:18.053Z,6.40
2019-01-26T06:27:24.761Z,6.40
2019-01-26T06:28:31.440Z,6.40
2019-01-26T06:29:39.215Z,6.40
2019-01-26T06:30:46.361Z,6.40
2019-01-26T06:31:53.068Z,6.40
2019-01-26T06:33:00.279Z,6.40
2019-01-26T06:34:06.974Z,6.40
2019-01-26T06:35:14.230Z,6.50
2019-01-26T06:36:21.167Z,6.40
2019-01-26T06:37:27.807Z,6.50
2019-01-26T06:38:34.779Z,6.50
2019-01-26T06:39:42.374Z,6.50
2019-01-26T06:40:49.066Z,6.50
2019-01-26T06:41:55.809Z,6.50
2019-01-26T06:43:02.592Z,6.40
2019-01-26T06:44:09.598Z,6.50
2019-01-26T06:45:19.010Z,6.50
2019-01-26T06:46:25.689Z,6.50
2019-01-26T06:47:32.656Z,6.50
2019-01-26T06:48:40.067Z,6.50
2019-01-26T06:49:47.118Z,6.50
2019-01-26T06:50:54.197Z,6.50
2019-01-26T06:52:01.175Z,6.50
2019-01-26T06:53:07.837Z,6.50
2019-01-26T06:54:14.534Z,6.40
2019-01-26T06:55:21.308Z,6.40
2019-01-26T06:56:28.404Z,6.50
2019-01-26T06:57:35.067Z,6.40
2019-01-26T06:58:42.347Z,6.50
2019-01-26T06:59:49.028Z,6.50
2019-01-26T07:00:55.922Z,6.40
2019-01-26T07:02:02.926Z,6.50
2019-01-26T07:03:09.646Z,6.50
2019-01-26T07:04:25.001Z,6.50
2019-01-26T07:05:49.287Z,6.50
2019-01-26T07:07:11.799Z,6.50
2019-01-26T07:08:20.004Z,6.50
2019-01-26T07:09:27.597Z,6.50
2019-01-26T07:10:34.321Z,6.50
2019-01-26T07:11:41.021Z,6.50
2019-01-26T07:12:48.209Z,6.50
2019-01-26T07:13:55.606Z,6.50
2019-01-26T07:15:02.271Z,6.50
2019-01-26T07:16:09.303Z,6.50
2019-01-26T07:17:16.002Z,6.40
2019-01-26T07:18:22.845Z,6.40
2019-01-26T07:19:29.550Z,6.40
2019-01-26T07:20:36.245Z,6.40
2019-01-26T07:21:43.005Z,6.50
2019-01-26T07:22:49.844Z,6.50
2019-01-26T07:23:57.047Z,6.40
2019-01-26T07:25:03.840Z,6.50
2019-01-26T07:26:10.802Z,6.50
2019-01-26T07:27:17.498Z,6.50
2019-01-26T07:28:24.759Z,6.50
2019-01-26T07:29:31.489Z,6.50
2019-01-26T07:30:38.531Z,6.50
2019-01-26T07:31:45.229Z,6.40
2019-01-26T07:32:52.142Z,6.50
2019-01-26T07:33:59.151Z,6.50
2019-01-26T07:35:06.732Z,6.50
2019-01-26T07:36:13.376Z,6.50
2019-01-26T07:37:20.107Z,6.50
2019-01-26T07:38:27.145Z,6.50
2019-01-26T07:39:34.204Z,6.50
2019-01-26T07:40:41.373Z,6.50
2019-01-26T07:41:48.085Z,6.50
2019-01-26T07:42:54.818Z,6.50
2019-01-26T07:44:02.223Z,6.50
2019-01-26T07:45:12.099Z,6.50
2019-01-26T07:46:18.793Z,6.50
2019-01-26T07:47:25.463Z,6.50
2019-01-26T07:48:32.954Z,6.50
2019-01-26T07:49:39.707Z,6.50
2019-01-26T07:50:46.725Z,6.50
2019-01-26T07:51:53.609Z,6.50
2019-01-26T07:53:00.569Z,6.50
2019-01-26T07:54:07.510Z,6.50
2019-01-26T07:55:14.731Z,6.50
2019-01-26T07:56:21.709Z,6.50
2019-01-26T07:57:28.705Z,6.40
2019-01-26T07:58:35.963Z,6.50
2019-01-26T07:59:42.967Z,6.40
2019-01-26T08:00:49.663Z,6.40
2019-01-26T08:01:58.230Z,6.50
2019-01-26T08:03:05.716Z,6.40
2019-01-26T08:04:12.412Z,6.40
2019-01-26T08:05:19.533Z,6.50
2019-01-26T08:06:26.552Z,6.50
2019-01-26T08:07:34.760Z,6.40
2019-01-26T08:08:41.498Z,6.40
2019-01-26T08:09:48.207Z,6.40
2019-01-26T08:10:55.204Z,6.40
2019-01-26T08:12:02.081Z,6.50
2019-01-26T08:13:09.595Z,6.50
2019-01-26T08:14:16.447Z,6.50
2019-01-26T08:15:30.598Z,6.50
2019-01-26T08:16:37.880Z,6.50
2019-01-26T08:17:44.836Z,6.50
2019-01-26T08:18:52.583Z,6.40
2019-01-26T08:19:59.464Z,6.50
2019-01-26T08:21:07.521Z,6.50
2019-01-26T08:22:14.274Z,6.50
2019-01-26T08:23:21.408Z,6.50
2019-01-26T08:24:28.719Z,6.50
2019-01-26T08:25:35.897Z,6.50
2019-01-26T08:26:43.485Z,6.50
2019-01-26T08:27:50.212Z,6.50
2019-01-26T08:28:56.846Z,6.50
2019-01-26T08:30:03.835Z,6.50
2019-01-26T08:31:11.799Z,6.50
2019-01-26T08:32:19.048Z,6.50
2019-01-26T08:33:26.063Z,6.50
2019-01-26T08:34:33.260Z,6.50
2019-01-26T08:35:40.206Z,6.50
2019-01-26T08:36:47.248Z,6.50
2019-01-26T08:37:54.053Z,6.50
2019-01-26T08:39:00.715Z,6.50
2019-01-26T08:40:08.889Z,6.50
2019-01-26T08:41:15.941Z,6.50
2019-01-26T08:42:23.241Z,6.50
2019-01-26T08:43:30.724Z,6.50
2019-01-26T08:44:37.822Z,6.50
2019-01-26T08:45:44.941Z,6.50
2019-01-26T08:46:52.255Z,6.50
2019-01-26T08:47:59.487Z,6.50
2019-01-26T08:49:06.440Z,6.60
2019-01-26T08:50:19.351Z,6.50
2019-01-26T08:51:26.475Z,6.50
2019-01-26T08:52:34.792Z,6.60
2019-01-26T08:53:41.937Z,6.60
2019-01-26T08:54:48.816Z,6.50
2019-01-26T08:55:56.683Z,6.50
2019-01-26T08:57:03.811Z,6.50
2019-01-26T08:58:10.665Z,6.50
2019-01-26T08:59:18.209Z,6.50
2019-01-26T09:00:29.801Z,6.50
2019-01-26T09:01:37.920Z,6.50
2019-01-26T09:03:10.070Z,6.50
2019-01-26T09:04:21.246Z,6.50
2019-01-26T09:05:29.796Z,6.50
2019-01-26T09:06:40.075Z,6.50
2019-01-26T09:07:46.930Z,6.50
2019-01-26T09:08:53.590Z,6.50
2019-01-26T09:10:00.323Z,6.50
2019-01-26T09:11:07.634Z,6.50
2019-01-26T09:12:14.657Z,6.50
2019-01-26T09:13:21.344Z,6.50
2019-01-26T09:14:28.564Z,6.50
2019-01-26T09:15:35.807Z,6.60
2019-01-26T09:16:43.235Z,6.60
2019-01-26T09:17:50.552Z,6.60
2019-01-26T09:18:57.496Z,6.60
2019-01-26T09:20:05.480Z,6.60
2019-01-26T09:21:13.191Z,6.60
2019-01-26T09:22:20.772Z,6.60
2019-01-26T09:23:27.598Z,6.50
2019-01-26T09:24:35.140Z,6.50
2019-01-26T09:25:42.350Z,6.50
2019-01-26T09:26:49.195Z,6.50
2019-01-26T09:27:56.133Z,6.50
2019-01-26T09:29:03.289Z,6.50
2019-01-26T09:30:10.865Z,6.50
2019-01-26T09:31:18.809Z,6.60
2019-01-26T09:32:26.322Z,6.50
2019-01-26T09:33:33.808Z,6.60
2019-01-26T09:34:40.880Z,6.60
2019-01-26T09:35:47.751Z,6.60
2019-01-26T09:36:54.734Z,6.60
2019-01-26T09:38:01.447Z,6.60
2019-01-26T09:39:11.873Z,6.60
2019-01-26T09:40:19.116Z,6.60
2019-01-26T09:41:25.866Z,6.60
2019-01-26T09:42:32.959Z,6.60
2019-01-26T09:43:40.280Z,6.60
2019-01-26T09:44:47.177Z,6.60
2019-01-26T09:45:54.556Z,6.60
2019-01-26T09:47:01.635Z,6.60
2019-01-26T09:48:08.969Z,6.60
2019-01-26T09:49:16.276Z,6.60
2019-01-26T09:50:23.567Z,6.70
2019-01-26T09:51:30.243Z,6.60
2019-01-26T09:52:37.176Z,6.60
2019-01-26T09:53:44.899Z,6.70
2019-01-26T09:54:52.847Z,6.70
2019-01-26T09:55:59.772Z,6.70
2019-01-26T09:57:06.871Z,6.70
2019-01-26T09:58:14.072Z,6.70
2019-01-26T09:59:20.784Z,6.70
2019-01-26T10:00:28.686Z,6.70
2019-01-26T10:01:35.478Z,6.70
2019-01-26T10:02:42.295Z,6.70
2019-01-26T10:03:49.490Z,6.70
2019-01-26T10:04:56.644Z,6.70
2019-01-26T10:06:03.439Z,6.70
2019-01-26T10:07:10.096Z,6.70
2019-01-26T10:08:16.745Z,6.70
2019-01-26T10:09:23.402Z,6.70
2019-01-26T10:10:30.303Z,6.70
2019-01-26T10:11:37.236Z,6.70
2019-01-26T10:12:44.618Z,6.70
2019-01-26T10:13:51.548Z,6.70
2019-01-26T10:14:58.371Z,6.70
2019-01-26T10:16:05.439Z,6.70
2019-01-26T10:17:12.888Z,6.70
2019-01-26T10:18:19.906Z,6.70
2019-01-26T10:19:27.583Z,6.70
2019-01-26T10:20:36.841Z,6.70
2019-01-26T10:21:44.201Z,6.70
2019-01-26T10:22:51.208Z,6.70
2019-01-26T10:23:58.210Z,6.80
2019-01-26T10:25:05.875Z,6.70
2019-01-26T10:26:12.557Z,6.70
2019-01-26T10:27:19.699Z,6.70
2019-01-26T10:28:26.636Z,6.70
2019-01-26T10:29:33.583Z,6.70
2019-01-26T10:30:45.247Z,6.70
2019-01-26T10:31:51.906Z,6.70
2019-01-26T10:32:58.983Z,6.70
2019-01-26T10:34:05.854Z,6.70
2019-01-26T10:35:12.814Z,6.70
2019-01-26T10:36:47.425Z,6.70
2019-01-26T10:37:54.141Z,6.70
2019-01-26T10:39:09.259Z,6.70
2019-01-26T10:40:34.056Z,6.70
2019-01-26T10:41:59.400Z,6.70
2019-01-26T10:43:06.823Z,6.70
2019-01-26T10:44:18.104Z,6.70
2019-01-26T10:45:24.792Z,6.60
2019-01-26T10:46:31.595Z,6.60
2019-01-26T10:47:38.279Z,6.60
2019-01-26T10:48:45.390Z,6.60
2019-01-26T10:49:52.126Z,6.70
2019-01-26T10:51:00.145Z,6.70
2019-01-26T10:52:08.076Z,6.70
2019-01-26T10:53:16.504Z,6.70
2019-01-26T10:54:23.231Z,6.70
2019-01-26T10:55:30.274Z,6.70
2019-01-26T10:56:36.940Z,6.70
2019-01-26T10:57:43.773Z,6.70
2019-01-26T10:58:50.743Z,6.70
2019-01-26T10:59:57.891Z,6.70
2019-01-26T11:01:05.007Z,6.70
2019-01-26T11:02:12.351Z,6.70
2019-01-26T11:03:19.615Z,6.70
2019-01-26T11:04:26.270Z,6.70
2019-01-26T11:05:33.026Z,6.70
2019-01-26T11:06:39.743Z,6.70
2019-01-26T11:07:46.370Z,6.70
2019-01-26T11:08:53.808Z,6.60
2019-01-26T11:10:00.723Z,6.70
2019-01-26T11:11:07.478Z,6.70
2019-01-26T11:12:14.146Z,6.60
2019-01-26T11:13:20.939Z,6.60
2019-01-26T11:14:27.977Z,6.60
2019-01-26T11:15:34.728Z,6.60
2019-01-26T11:16:41.793Z,6.60
2019-01-26T11:17:48.457Z,6.60
2019-01-26T11:18:55.251Z,6.60
2019-01-26T11:20:02.338Z,6.60
2019-01-26T11:21:08.996Z,6.60
2019-01-26T11:22:16.265Z,6.60
2019-01-26T11:23:22.903Z,6.60
2019-01-26T11:24:29.551Z,6.60
2019-01-26T11:25:36.687Z,6.60
2019-01-26T11:26:49.281Z,6.60
2019-01-26T11:27:52.218Z,6.60
2019-01-26T11:28:59.233Z,6.60
2019-01-26T11:30:08.062Z,6.60
2019-01-26T11:31:14.952Z,6.60
2019-01-26T11:32:22.038Z,6.60
2019-01-26T11:33:28.787Z,6.60
2019-01-26T11:34:35.551Z,6.60
2019-01-26T11:35:42.375Z,6.60
2019-01-26T11:36:49.044Z,6.60
2019-01-26T11:37:56.176Z,6.60
2019-01-26T11:39:04.174Z,6.50
2019-01-26T11:40:19.002Z,6.50
2019-01-26T11:41:25.678Z,6.50
2019-01-26T11:42:32.877Z,6.60
2019-01-26T11:43:39.577Z,6.50
2019-01-26T11:45:05.055Z,6.60
2019-01-26T11:46:33.404Z,6.60
2019-01-26T11:47:40.169Z,6.50
2019-01-26T11:48:48.798Z,6.60
2019-01-26T11:49:59.462Z,6.60
2019-01-26T11:51:25.281Z,6.60
2019-01-26T11:52:32.417Z,6.60
2019-01-26T11:53:39.268Z,6.60
2019-01-26T11:55:11.284Z,6.60
2019-01-26T11:56:32.608Z,6.60
2019-01-26T11:57:40.122Z,6.60
2019-01-26T11:58:47.235Z,6.60
2019-01-26T12:00:28.259Z,6.60
2019-01-26T12:01:49.403Z,6.60
2019-01-26T12:03:05.344Z,6.60
2019-01-26T12:04:34.863Z,6.60
2019-01-26T12:05:58.351Z,6.60
2019-01-26T12:07:11.263Z,6.60
2019-01-26T12:08:18.238Z,6.60
2019-01-26T12:09:24.872Z,6.60
2019-01-26T12:10:31.611Z,6.60
2019-01-26T12:11:38.324Z,6.60
2019-01-26T12:12:45.467Z,6.60
2019-01-26T12:13:52.501Z,6.60
2019-01-26T12:14:59.226Z,6.60
2019-01-26T12:16:06.204Z,6.50
2019-01-26T12:17:13.489Z,6.50
2019-01-26T12:18:20.109Z,6.60
2019-01-26T12:19:27.440Z,6.50
2019-01-26T12:20:34.459Z,6.50
2019-01-26T12:21:41.288Z,6.50
2019-01-26T12:22:48.048Z,6.50
2019-01-26T12:23:54.687Z,6.50
2019-01-26T12:25:01.618Z,6.40
2019-01-26T12:26:08.459Z,6.40
2019-01-26T12:27:15.254Z,6.40
2019-01-26T12:28:22.259Z,6.40
2019-01-26T12:29:29.098Z,6.40
2019-01-26T12:30:36.116Z,6.40
2019-01-26T12:31:42.806Z,6.40
2019-01-26T12:32:50.096Z,6.40
2019-01-26T12:33:57.101Z,6.40
2019-01-26T12:35:04.703Z,6.40
2019-01-26T12:36:11.443Z,6.40
2019-01-26T12:37:18.230Z,6.40
2019-01-26T12:38:25.275Z,6.40
2019-01-26T12:39:31.965Z,6.40
2019-01-26T12:40:38.734Z,6.40
2019-01-26T12:41:45.394Z,6.40
2019-01-26T12:42:52.046Z,6.40
2019-01-26T12:43:59.105Z,6.40
2019-01-26T12:45:08.342Z,6.40
2019-01-26T12:46:14.995Z,6.40
2019-01-26T12:47:22.087Z,6.30
2019-01-26T12:48:29.158Z,6.40
2019-01-26T12:49:36.156Z,6.30
2019-01-26T12:50:42.959Z,6.30
2019-01-26T12:52:08.668Z,6.30
2019-01-26T12:53:15.556Z,6.30
2019-01-26T12:54:22.269Z,6.30
2019-01-26T12:55:29.347Z,6.30
2019-01-26T12:56:35.995Z,6.30
2019-01-26T12:57:43.310Z,6.30
2019-01-26T12:58:49.971Z,6.30
2019-01-26T12:59:56.833Z,6.30
2019-01-26T13:01:03.631Z,6.30
2019-01-26T13:02:10.387Z,6.30
2019-01-26T13:03:18.594Z,6.30
2019-01-26T13:04:26.418Z,6.30
2019-01-26T13:05:33.705Z,6.30
2019-01-26T13:06:41.370Z,6.30
2019-01-26T13:07:48.481Z,6.30
2019-01-26T13:08:55.328Z,6.30
2019-01-26T13:10:01.963Z,6.30
2019-01-26T13:11:23.566Z,6.30
2019-01-26T13:12:30.587Z,6.30
2019-01-26T13:13:37.611Z,6.30
2019-01-26T13:14:44.488Z,6.30
2019-01-26T13:15:51.187Z,6.30
2019-01-26T13:16:58.168Z,6.30
2019-01-26T13:18:05.302Z,6.30
2019-01-26T13:19:12.333Z,6.30
2019-01-26T13:20:19.574Z,6.30
2019-01-26T13:21:26.280Z,6.30
2019-01-26T13:22:33.368Z,6.30
2019-01-26T13:23:40.368Z,6.30
2019-01-26T13:24:47.318Z,6.30
2019-01-26T13:25:54.178Z,6.30
2019-01-26T13:27:00.986Z,6.30
2019-01-26T13:28:07.766Z,6.30
2019-01-26T13:29:14.704Z,6.30
2019-01-26T13:30:21.895Z,6.30
2019-01-26T13:31:28.923Z,6.30
2019-01-26T13:32:36.307Z,6.20
2019-01-26T13:33:42.974Z,6.20
2019-01-26T13:34:50.124Z,6.30
2019-01-26T13:35:57.172Z,6.20
2019-01-26T13:37:03.894Z,6.20
2019-01-26T13:38:10.527Z,6.20
2019-01-26T13:39:17.235Z,6.20
2019-01-26T13:40:24.436Z,6.20
2019-01-26T13:41:31.218Z,6.20
2019-01-26T13:42:37.966Z,6.20
2019-01-26T13:43:44.636Z,6.20
2019-01-26T13:44:51.270Z,6.20
2019-01-26T13:45:57.952Z,6.20
2019-01-26T13:47:04.899Z,6.20
2019-01-26T13:48:11.861Z,6.20
2019-01-26T13:49:19.075Z,6.20
2019-01-26T13:50:26.075Z,6.20
2019-01-26T13:51:34.066Z,6.20
2019-01-26T13:52:41.169Z,6.20
2019-01-26T13:53:47.824Z,6.20
2019-01-26T13:54:54.840Z,6.20
2019-01-26T13:56:01.547Z,6.20
2019-01-26T13:57:08.211Z,6.20
2019-01-26T13:58:15.756Z,6.20
2019-01-26T13:59:22.767Z,6.20
2019-01-26T14:00:31.717Z,6.20
2019-01-26T14:01:38.440Z,6.20
2019-01-26T14:02:45.512Z,6.20
2019-01-26T14:03:52.340Z,6.20
2019-01-26T14:04:59.360Z,6.20
2019-01-26T14:06:06.757Z,6.20
2019-01-26T14:07:13.436Z,6.20
2019-01-26T14:08:20.103Z,6.20
2019-01-26T14:09:26.883Z,6.20
2019-01-26T14:10:34.199Z,6.20
2019-01-26T14:11:40.889Z,6.20
2019-01-26T14:12:47.917Z,6.20
2019-01-26T14:13:54.543Z,6.20
2019-01-26T14:15:01.540Z,6.20
2019-01-26T14:16:08.335Z,6.20
2019-01-26T14:17:14.998Z,6.20
2019-01-26T14:18:21.667Z,6.20
2019-01-26T14:19:28.466Z,6.20
2019-01-26T14:20:35.167Z,6.20
2019-01-26T14:21:41.884Z,6.30
2019-01-26T14:22:48.956Z,6.30
2019-01-26T14:23:56.224Z,6.30
2019-01-26T14:25:03.619Z,6.30
2019-01-26T14:26:10.772Z,6.30
2019-01-26T14:27:17.478Z,6.30
2019-01-26T14:28:24.145Z,6.30
2019-01-26T14:29:30.850Z,6.20
2019-01-26T14:30:42.185Z,6.20
2019-01-26T14:31:49.135Z,6.20
2019-01-26T14:32:56.167Z,6.20
2019-01-26T14:34:03.187Z,6.20
2019-01-26T14:35:10.501Z,6.20
2019-01-26T14:36:17.404Z,6.20
2019-01-26T14:37:24.029Z,6.20
2019-01-26T14:38:31.229Z,6.20
2019-01-26T14:39:39.804Z,6.20
2019-01-26T14:40:46.990Z,6.20
2019-01-26T14:41:54.041Z,6.20
2019-01-26T14:43:00.807Z,6.10
2019-01-26T14:44:07.838Z,6.10
2019-01-26T14:45:15.295Z,6.20
2019-01-26T14:46:22.418Z,6.10
2019-01-26T14:47:29.455Z,6.10
2019-01-26T14:48:36.555Z,6.10
2019-01-26T14:49:43.286Z,6.10
2019-01-26T14:50:49.991Z,6.10
2019-01-26T14:51:56.822Z,6.00
2019-01-26T14:53:03.702Z,6.10
2019-01-26T14:54:10.542Z,6.10
2019-01-26T14:55:20.549Z,6.10
2019-01-26T14:56:27.720Z,6.10
2019-01-26T14:57:34.435Z,6.10
2019-01-26T14:58:41.796Z,6.10
2019-01-26T14:59:48.774Z,6.00